createdAt,value
2022-07-26T00:01:05.435Z,2.83
2022-07-26T00:03:33.956Z,2.27
2022-07-26T00:06:02.122Z,2.47
2022-07-26T00:08:30.131Z,3.30
2022-07-26T00:10:58.161Z,3.27
2022-07-26T00:13:27.948Z,2.70
2022-07-26T00:15:59.906Z,3.17
2022-07-26T00:18:28.362Z,2.27
2022-07-26T00:20:56.452Z,2.70
2022-07-26T00:23:25.917Z,2.60
2022-07-26T00:25:53.989Z,2.50
2022-07-26T00:28:22.145Z,2.33
2022-07-26T00:30:50.234Z,3.00
2022-07-26T00:33:19.659Z,2.40
2022-07-26T00:35:47.830Z,2.90
2022-07-26T00:38:16.224Z,2.67
2022-07-26T00:40:44.315Z,2.50
2022-07-26T00:43:12.534Z,2.50
2022-07-26T00:45:40.654Z,2.30
2022-07-26T00:48:08.937Z,3.00
2022-07-26T00:50:38.519Z,2.20
2022-07-26T00:53:06.571Z,2.33
2022-07-26T00:55:34.777Z,2.73
2022-07-26T00:58:02.865Z,2.80
2022-07-26T01:00:31.250Z,2.37
2022-07-26T01:03:00.633Z,2.93
2022-07-26T01:05:29.169Z,2.30
2022-07-26T01:07:59.393Z,2.40
2022-07-26T01:10:27.535Z,2.30
2022-07-26T01:12:55.529Z,2.30
2022-07-26T01:15:23.668Z,2.30
2022-07-26T01:17:51.767Z,2.50
2022-07-26T01:20:19.815Z,2.10
2022-07-26T01:22:49.277Z,2.70
2022-07-26T01:25:17.749Z,2.73
2022-07-26T01:27:45.798Z,1.93
2022-07-26T01:30:14.952Z,1.90
2022-07-26T01:32:43.020Z,2.60
2022-07-26T01:35:11.698Z,2.17
2022-07-26T01:37:39.754Z,2.53
2022-07-26T01:40:11.448Z,1.90
2022-07-26T01:42:41.017Z,2.90
2022-07-26T01:45:10.036Z,2.27
2022-07-26T01:47:38.424Z,2.67
2022-07-26T01:50:08.127Z,2.50
2022-07-26T01:52:37.343Z,2.20
2022-07-26T01:55:06.022Z,3.13
2022-07-26T01:57:35.484Z,1.80
2022-07-26T02:00:05.216Z,2.00
2022-07-26T02:02:33.391Z,2.23
2022-07-26T02:05:02.028Z,3.07
2022-07-26T02:07:31.892Z,2.83
2022-07-26T02:10:01.518Z,2.20
2022-07-26T02:12:29.975Z,2.10
2022-07-26T02:14:59.398Z,1.73
2022-07-26T02:17:27.493Z,1.90
2022-07-26T02:19:55.612Z,2.07
2022-07-26T02:22:23.621Z,1.90
2022-07-26T02:24:51.743Z,2.07
2022-07-26T02:27:20.146Z,2.13
2022-07-26T02:29:48.412Z,2.03
2022-07-26T02:32:18.232Z,2.40
2022-07-26T02:34:46.275Z,1.90
2022-07-26T02:37:14.303Z,2.00
2022-07-26T02:39:42.307Z,2.30
2022-07-26T02:42:10.366Z,2.33
2022-07-26T02:44:38.427Z,2.37
2022-07-26T02:47:06.530Z,2.17
2022-07-26T02:49:36.344Z,2.60
2022-07-26T02:52:04.675Z,2.10
2022-07-26T02:54:32.724Z,2.43
2022-07-26T02:57:00.771Z,2.60
2022-07-26T02:59:28.816Z,2.30
2022-07-26T03:01:57.017Z,2.60
2022-07-26T03:04:25.113Z,2.33
2022-07-26T03:06:54.519Z,2.00
2022-07-26T03:09:22.584Z,2.23
2022-07-26T03:11:50.657Z,2.80
2022-07-26T03:14:18.727Z,2.20
2022-07-26T03:16:46.822Z,2.13
2022-07-26T03:19:14.851Z,1.77
2022-07-26T03:21:43.969Z,2.50
2022-07-26T03:24:13.397Z,2.20
2022-07-26T03:26:41.536Z,2.10
2022-07-26T03:29:09.756Z,2.57
2022-07-26T03:31:37.871Z,2.30
2022-07-26T03:34:06.694Z,2.67
2022-07-26T03:36:34.902Z,2.43
2022-07-26T03:39:02.963Z,2.50
2022-07-26T03:41:32.491Z,2.23
2022-07-26T03:44:00.498Z,2.83
2022-07-26T03:46:28.958Z,2.07
2022-07-26T03:48:57.073Z,2.40
2022-07-26T03:51:25.216Z,2.70
2022-07-26T03:53:53.319Z,2.60
2022-07-26T03:56:31.844Z,2.27
2022-07-26T03:59:02.585Z,2.50
2022-07-26T04:01:31.189Z,2.60
2022-07-26T04:03:59.338Z,3.40
2022-07-26T04:06:27.439Z,2.47
2022-07-26T04:08:55.535Z,3.03
2022-07-26T04:11:26.436Z,2.93
2022-07-26T04:13:56.408Z,2.40
2022-07-26T04:16:26.040Z,2.10
2022-07-26T04:18:54.219Z,2.43
2022-07-26T04:21:22.502Z,2.17
2022-07-26T04:23:51.753Z,2.20
2022-07-26T04:26:21.164Z,2.20
2022-07-26T04:28:49.463Z,2.80
2022-07-26T04:31:17.934Z,2.40
2022-07-26T04:33:47.450Z,2.20
2022-07-26T04:36:15.611Z,2.20
2022-07-26T04:38:43.673Z,2.03
2022-07-26T04:41:11.848Z,3.30
2022-07-26T04:43:39.881Z,2.00
2022-07-26T04:46:08.224Z,3.03
2022-07-26T04:48:37.848Z,2.47
2022-07-26T04:51:07.571Z,2.10
2022-07-26T04:53:35.631Z,2.43
2022-07-26T04:56:03.673Z,2.67
2022-07-26T04:58:31.701Z,2.47
2022-07-26T05:01:16.245Z,2.70
2022-07-26T05:03:44.357Z,3.23
2022-07-26T05:06:13.789Z,2.57
2022-07-26T05:08:43.326Z,2.43
2022-07-26T05:11:11.531Z,2.40
2022-07-26T05:13:39.612Z,2.43
2022-07-26T05:16:11.672Z,2.40
2022-07-26T05:18:46.112Z,2.97
2022-07-26T05:21:18.906Z,2.07
2022-07-26T05:23:46.985Z,2.93
2022-07-26T05:26:15.202Z,2.00
2022-07-26T05:28:43.225Z,2.57
2022-07-26T05:31:11.301Z,2.90
2022-07-26T05:33:39.377Z,2.13
2022-07-26T05:36:07.943Z,3.20
2022-07-26T05:38:37.360Z,2.80
2022-07-26T05:41:05.615Z,3.23
2022-07-26T05:43:40.766Z,2.57
2022-07-26T05:46:09.844Z,3.27
2022-07-26T05:48:38.200Z,2.13
2022-07-26T05:51:06.309Z,3.17
2022-07-26T05:53:34.400Z,2.20
2022-07-26T05:56:04.071Z,2.83
2022-07-26T05:58:32.223Z,2.40
2022-07-26T06:01:00.280Z,2.70
2022-07-26T06:03:30.136Z,2.50
2022-07-26T06:05:59.821Z,2.70
2022-07-26T06:08:28.394Z,3.00
2022-07-26T06:10:56.952Z,4.33
2022-07-26T06:13:26.464Z,4.67
2022-07-26T06:15:54.608Z,3.07
2022-07-26T06:18:22.988Z,3.93
2022-07-26T06:20:51.422Z,3.50
2022-07-26T06:23:33.866Z,3.07
2022-07-26T06:26:04.089Z,3.50
2022-07-26T06:28:33.961Z,2.73
2022-07-26T06:31:02.040Z,3.50
2022-07-26T06:33:30.123Z,2.87
2022-07-26T06:35:58.207Z,3.77
2022-07-26T06:38:26.375Z,2.93
2022-07-26T06:40:54.507Z,3.73
2022-07-26T06:43:22.627Z,3.43
2022-07-26T06:45:52.040Z,3.77
2022-07-26T06:48:20.240Z,4.10
2022-07-26T06:50:48.382Z,3.60
2022-07-26T06:53:16.532Z,3.40
2022-07-26T06:55:44.794Z,3.30
2022-07-26T06:58:14.160Z,3.70
2022-07-26T07:00:42.316Z,2.90
2022-07-26T07:03:11.922Z,3.77
2022-07-26T07:05:39.978Z,4.33
2022-07-26T07:08:08.109Z,3.60
2022-07-26T07:10:38.564Z,3.53
2022-07-26T07:13:06.657Z,3.83
2022-07-26T07:15:34.722Z,3.50
2022-07-26T07:18:02.815Z,3.53
2022-07-26T07:20:32.195Z,3.50
2022-07-26T07:23:00.182Z,4.43
2022-07-26T07:25:30.886Z,2.80
2022-07-26T07:27:59.392Z,3.90
2022-07-26T07:30:28.164Z,4.27
2022-07-26T07:32:56.901Z,2.80
2022-07-26T07:35:25.195Z,3.57
2022-07-26T07:38:02.026Z,3.17
2022-07-26T07:40:30.339Z,2.97
2022-07-26T07:42:58.919Z,3.07
2022-07-26T07:45:27.031Z,2.90
2022-07-26T07:47:55.207Z,2.80
2022-07-26T07:50:27.198Z,2.57
2022-07-26T07:52:59.046Z,2.53
2022-07-26T07:55:46.637Z,2.40
2022-07-26T07:58:17.287Z,2.40
2022-07-26T08:00:47.272Z,2.37
2022-07-26T08:03:17.903Z,2.77
2022-07-26T08:05:47.343Z,3.40
2022-07-26T08:08:18.766Z,2.50
2022-07-26T08:10:51.696Z,2.60
2022-07-26T08:13:21.444Z,3.03
2022-07-26T08:15:50.630Z,2.20
2022-07-26T08:18:21.653Z,1.80
2022-07-26T08:20:51.514Z,3.40
2022-07-26T08:23:19.901Z,2.10
2022-07-26T08:25:57.092Z,2.03
2022-07-26T08:31:15.467Z,1.93
2022-07-26T08:33:46.535Z,2.00
2022-07-26T08:36:15.654Z,2.10
2022-07-26T08:38:43.905Z,2.60
2022-07-26T08:41:13.275Z,2.23
2022-07-26T08:43:52.117Z,2.53
2022-07-26T08:46:25.182Z,3.20
2022-07-26T08:48:53.997Z,2.40
2022-07-26T08:51:25.555Z,3.00
2022-07-26T08:54:04.198Z,2.30
2022-07-26T08:56:35.903Z,3.23
2022-07-26T08:59:06.706Z,2.00
2022-07-26T09:01:35.249Z,2.63
2022-07-26T09:04:32.269Z,2.10
2022-07-26T09:07:06.443Z,2.53
2022-07-26T09:09:36.571Z,1.90
2022-07-26T09:12:24.774Z,2.10
2022-07-26T09:14:53.645Z,2.03
2022-07-26T09:17:24.786Z,1.90
2022-07-26T09:20:07.744Z,2.00
2022-07-26T09:22:37.394Z,1.50
2022-07-26T09:25:21.552Z,1.80
2022-07-26T09:27:53.123Z,1.90
2022-07-26T09:30:21.578Z,2.43
2022-07-26T09:32:59.829Z,2.37
2022-07-26T09:38:17.520Z,2.23
2022-07-26T09:40:50.892Z,2.00
2022-07-26T09:43:24.417Z,2.23
2022-07-26T09:46:06.993Z,2.30
2022-07-26T09:49:09.417Z,2.27
2022-07-26T09:51:39.036Z,2.40
2022-07-26T09:54:07.292Z,2.37
2022-07-26T09:56:46.746Z,1.90
2022-07-26T09:59:17.631Z,1.77
2022-07-26T10:01:46.912Z,2.50
2022-07-26T10:04:15.990Z,2.37
2022-07-26T10:06:44.529Z,2.30
2022-07-26T10:09:14.206Z,1.50
2022-07-26T10:11:47.289Z,2.30
2022-07-26T10:14:40.148Z,1.90
2022-07-26T10:17:51.078Z,1.80
2022-07-26T10:20:45.676Z,1.90
2022-07-26T10:23:41.897Z,2.43
2022-07-26T10:26:12.983Z,2.67
2022-07-26T10:28:42.398Z,2.00
2022-07-26T10:31:30.661Z,1.97
2022-07-26T10:34:01.765Z,2.17
2022-07-26T10:36:33.706Z,2.43
2022-07-26T10:39:05.491Z,1.60
2022-07-26T10:41:35.699Z,2.10
2022-07-26T10:44:22.031Z,2.37
2022-07-26T10:46:59.595Z,2.40
2022-07-26T10:49:33.574Z,2.20
2022-07-26T10:52:13.615Z,1.90
2022-07-26T10:55:07.145Z,2.23
2022-07-26T10:57:37.846Z,2.10
2022-07-26T11:00:11.191Z,1.70
2022-07-26T11:02:43.309Z,1.93
2022-07-26T11:05:16.430Z,2.10
2022-07-26T11:08:00.095Z,2.00
2022-07-26T11:10:31.310Z,1.97
2022-07-26T11:13:04.271Z,2.30
2022-07-26T11:15:32.388Z,2.40
2022-07-26T11:18:27.962Z,2.43
2022-07-26T11:20:57.919Z,1.87
2022-07-26T11:23:31.908Z,1.80
2022-07-26T11:26:05.221Z,2.40
2022-07-26T11:28:52.877Z,2.37
2022-07-26T11:31:23.636Z,2.00
2022-07-26T11:34:20.007Z,1.70
2022-07-26T11:36:48.707Z,1.80
2022-07-26T11:39:23.715Z,2.10
2022-07-26T11:41:59.216Z,1.90
2022-07-26T11:44:27.900Z,2.00
2022-07-26T11:46:58.028Z,2.30
2022-07-26T11:50:00.593Z,1.60
2022-07-26T11:52:25.210Z,2.07
2022-07-26T11:54:55.461Z,2.87
2022-07-26T11:57:28.459Z,2.50
2022-07-26T11:59:56.563Z,1.70
2022-07-26T12:02:24.802Z,2.00
2022-07-26T12:05:14.807Z,2.97
2022-07-26T12:07:54.987Z,2.20
2022-07-26T12:10:23.178Z,1.20
2022-07-26T12:12:51.427Z,1.80
2022-07-26T12:15:19.396Z,1.40
2022-07-26T12:18:00.740Z,1.77
2022-07-26T12:20:30.205Z,1.63
2022-07-26T12:23:00.621Z,1.60
2022-07-26T12:25:29.624Z,1.30
2022-07-26T12:27:58.011Z,1.50
2022-07-26T12:30:30.888Z,2.57
2022-07-26T12:33:02.910Z,1.60
2022-07-26T12:35:33.648Z,1.77
2022-07-26T12:38:02.148Z,1.73
2022-07-26T12:40:31.601Z,2.20
2022-07-26T12:43:02.591Z,1.43
2022-07-26T12:45:32.971Z,2.27
2022-07-26T12:48:02.803Z,1.77
2022-07-26T12:50:33.004Z,1.53
2022-07-26T12:53:03.116Z,1.40
2022-07-26T12:55:31.723Z,1.43
2022-07-26T12:58:00.694Z,1.70
2022-07-26T13:00:29.896Z,1.33
2022-07-26T13:02:58.603Z,2.00
2022-07-26T13:05:26.653Z,1.40
2022-07-26T13:07:56.012Z,1.47
2022-07-26T13:10:39.798Z,1.50
2022-07-26T13:13:07.824Z,1.90
2022-07-26T13:15:36.759Z,1.80
2022-07-26T13:18:07.864Z,1.90
2022-07-26T13:20:37.933Z,1.60
2022-07-26T13:23:11.590Z,1.30
2022-07-26T13:25:42.079Z,1.57
2022-07-26T13:28:11.124Z,1.77
2022-07-26T13:30:43.019Z,1.70
2022-07-26T13:33:11.990Z,1.43
2022-07-26T13:35:42.370Z,1.73
2022-07-26T13:38:11.897Z,1.80
2022-07-26T13:40:39.891Z,1.67
2022-07-26T13:43:07.902Z,1.47
2022-07-26T13:45:35.918Z,1.80
2022-07-26T13:48:04.107Z,2.03
2022-07-26T13:50:32.181Z,1.67
2022-07-26T13:53:00.719Z,1.60
2022-07-26T13:55:30.129Z,1.53
2022-07-26T13:57:58.541Z,1.77
2022-07-26T14:00:27.183Z,1.77
2022-07-26T14:02:56.302Z,1.60
2022-07-26T14:05:24.537Z,1.93
2022-07-26T14:07:52.770Z,1.40
2022-07-26T14:10:22.012Z,1.67
2022-07-26T14:12:52.004Z,1.60
2022-07-26T14:15:23.026Z,1.60
2022-07-26T14:17:52.094Z,1.67
2022-07-26T14:20:20.737Z,2.13
2022-07-26T14:22:49.370Z,1.90
2022-07-26T14:25:17.321Z,1.80
2022-07-26T14:27:45.405Z,1.40
2022-07-26T14:30:15.564Z,1.80
2022-07-26T14:32:43.616Z,2.03
2022-07-26T14:35:11.880Z,2.10
2022-07-26T14:37:42.635Z,2.07
2022-07-26T14:40:14.501Z,1.80
2022-07-26T14:42:42.584Z,2.33
2022-07-26T14:45:11.331Z,2.53
2022-07-26T14:47:41.021Z,1.87
2022-07-26T14:50:10.706Z,2.10
2022-07-26T14:52:39.881Z,1.80
2022-07-26T14:55:09.101Z,1.40
2022-07-26T14:57:39.339Z,1.83
2022-07-26T15:00:10.130Z,1.67
2022-07-26T15:02:41.580Z,2.07
2022-07-26T15:05:10.775Z,2.07
2022-07-26T15:07:39.332Z,1.80
2022-07-26T15:10:09.275Z,2.20
2022-07-26T15:12:37.328Z,1.93
2022-07-26T15:15:06.213Z,1.50
2022-07-26T15:17:34.387Z,2.03
2022-07-26T15:20:05.039Z,1.43
2022-07-26T15:22:33.096Z,1.57
2022-07-26T15:25:01.053Z,1.93
2022-07-26T15:27:29.118Z,1.40
2022-07-26T15:30:02.829Z,1.70
2022-07-26T15:32:32.149Z,1.73
2022-07-26T15:35:00.199Z,2.07
2022-07-26T15:37:30.006Z,1.87
2022-07-26T15:39:58.743Z,2.00
2022-07-26T15:42:26.893Z,1.40
2022-07-26T15:44:56.146Z,1.60
2022-07-26T15:47:52.176Z,1.70
2022-07-26T15:50:15.038Z,8.03
2022-07-26T15:52:45.815Z,11.73
2022-07-26T15:55:14.819Z,5.20
2022-07-26T15:57:43.164Z,84.53
2022-07-26T16:00:13.828Z,46.03
2022-07-26T16:02:42.629Z,5.03
2022-07-26T16:05:11.514Z,2.53
2022-07-26T16:07:41.485Z,1.77
2022-07-26T16:10:12.664Z,1.97
2022-07-26T16:12:41.316Z,2.37
2022-07-26T16:15:11.201Z,1.53
2022-07-26T16:17:39.611Z,1.80
2022-07-26T16:20:09.288Z,2.10
2022-07-26T16:22:41.221Z,1.73
2022-07-26T16:25:13.777Z,1.80
2022-07-26T16:27:43.822Z,1.90
2022-07-26T16:30:13.224Z,1.80
2022-07-26T16:32:41.353Z,1.60
2022-07-26T16:35:10.494Z,1.63
2022-07-26T16:37:38.584Z,3.03
2022-07-26T16:40:08.344Z,7.70
2022-07-26T16:42:37.718Z,7.90
2022-07-26T16:45:06.498Z,3.60
2022-07-26T16:47:34.470Z,21.90
2022-07-26T16:50:03.075Z,66.27
2022-07-26T16:52:31.072Z,28.13
2022-07-26T16:55:00.122Z,82.80
2022-07-26T16:57:28.220Z,74.53
2022-07-26T16:59:57.700Z,36.70
2022-07-26T17:02:25.746Z,90.63
2022-07-26T17:04:55.833Z,36.30
2022-07-26T17:07:25.860Z,8.23
2022-07-26T17:09:54.531Z,6.17
2022-07-26T17:12:22.864Z,5.27
2022-07-26T17:14:50.865Z,4.10
2022-07-26T17:17:20.297Z,2.73
2022-07-26T17:19:48.376Z,3.60
2022-07-26T17:22:17.237Z,2.97
2022-07-26T17:24:45.484Z,2.70
2022-07-26T17:27:13.793Z,2.60
2022-07-26T17:29:41.871Z,1.97
2022-07-26T17:32:10.711Z,2.33
2022-07-26T17:34:40.613Z,1.70
2022-07-26T17:37:09.992Z,2.63
2022-07-26T17:39:52.737Z,6.17
2022-07-26T17:42:22.262Z,5.20
2022-07-26T17:44:50.932Z,4.70
2022-07-26T17:47:29.667Z,5.97
2022-07-26T17:50:26.366Z,2.53
2022-07-26T17:52:49.061Z,3.10
2022-07-26T17:55:18.532Z,4.70
2022-07-26T17:57:47.797Z,8.30
2022-07-26T18:00:16.784Z,13.40
2022-07-26T18:02:44.826Z,14.23
2022-07-26T18:05:14.713Z,12.67
2022-07-26T18:07:42.841Z,5.43
2022-07-26T18:10:12.099Z,4.30
2022-07-26T18:12:40.189Z,6.53
2022-07-26T18:15:09.206Z,4.33
2022-07-26T18:17:37.432Z,4.67
2022-07-26T18:20:06.910Z,3.80
2022-07-26T18:22:36.389Z,4.37
2022-07-26T18:25:05.058Z,5.37
2022-07-26T18:27:33.401Z,5.30
2022-07-26T18:30:01.471Z,2.80
2022-07-26T18:32:29.573Z,1.80
2022-07-26T18:34:57.578Z,2.10
2022-07-26T18:37:25.778Z,2.33
2022-07-26T18:39:58.021Z,1.60
2022-07-26T18:42:26.905Z,1.73
2022-07-26T18:44:54.915Z,1.77
2022-07-26T18:47:23.383Z,2.00
2022-07-26T18:49:51.622Z,1.60
2022-07-26T18:52:31.510Z,1.77
2022-07-26T18:55:02.526Z,1.60
2022-07-26T18:57:30.570Z,2.67
2022-07-26T18:59:58.638Z,1.70
2022-07-26T19:02:27.039Z,2.20
2022-07-26T19:04:55.432Z,1.97
2022-07-26T19:07:23.459Z,2.17
2022-07-26T19:09:56.415Z,2.07
2022-07-26T19:12:28.256Z,2.00
2022-07-26T19:14:56.315Z,1.90
2022-07-26T19:17:24.677Z,1.50
2022-07-26T19:19:52.674Z,2.27
2022-07-26T19:22:22.312Z,1.80
2022-07-26T19:24:50.715Z,2.03
2022-07-26T19:27:19.164Z,1.87
2022-07-26T19:29:49.386Z,1.60
2022-07-26T19:32:17.706Z,1.93
2022-07-26T19:34:45.641Z,1.60
2022-07-26T19:37:19.718Z,1.90
2022-07-26T19:39:48.466Z,1.90
2022-07-26T19:42:16.467Z,2.07
2022-07-26T19:44:45.668Z,1.97
2022-07-26T19:47:15.620Z,2.27
2022-07-26T19:49:43.738Z,2.00
2022-07-26T19:52:12.135Z,1.83
2022-07-26T19:54:40.653Z,2.13
2022-07-26T19:57:08.720Z,1.50
2022-07-26T19:59:36.913Z,1.90
2022-07-26T20:02:05.759Z,2.40
2022-07-26T20:04:35.315Z,1.97
2022-07-26T20:07:03.441Z,2.00
2022-07-26T20:09:31.737Z,1.93
2022-07-26T20:12:00.777Z,1.77
2022-07-26T20:14:28.851Z,2.63
2022-07-26T20:16:58.272Z,2.60
2022-07-26T20:19:28.182Z,1.90
2022-07-26T20:21:58.744Z,1.50
2022-07-26T20:24:26.811Z,1.87
2022-07-26T20:26:54.936Z,1.87
2022-07-26T20:29:23.080Z,2.20
2022-07-26T20:31:51.473Z,1.63
2022-07-26T20:34:19.617Z,2.20
2022-07-26T20:36:47.779Z,2.50
2022-07-26T20:39:17.355Z,2.17
2022-07-26T20:41:45.345Z,2.60
2022-07-26T20:44:14.262Z,2.43
2022-07-26T20:46:42.478Z,2.27
2022-07-26T20:49:11.011Z,2.17
2022-07-26T20:51:39.557Z,2.40
2022-07-26T20:54:08.645Z,2.33
2022-07-26T20:56:38.661Z,2.20
2022-07-26T20:59:07.119Z,2.20
2022-07-26T21:01:35.602Z,2.23
2022-07-26T21:04:03.994Z,2.27
2022-07-26T21:06:33.197Z,1.90
2022-07-26T21:09:09.595Z,1.90
2022-07-26T21:11:40.030Z,2.33
2022-07-26T21:14:08.310Z,1.87
2022-07-26T21:16:36.562Z,2.30
2022-07-26T21:19:05.382Z,2.50
2022-07-26T21:21:40.761Z,1.70
2022-07-26T21:24:09.420Z,2.10
2022-07-26T21:26:37.413Z,2.10
2022-07-26T21:29:06.940Z,2.87
2022-07-26T21:31:35.077Z,2.67
2022-07-26T21:34:03.230Z,2.40
2022-07-26T21:36:31.518Z,2.10
2022-07-26T21:38:59.585Z,1.80
2022-07-26T21:41:27.615Z,2.40
2022-07-26T21:43:55.622Z,1.83
2022-07-26T21:46:25.315Z,1.67
2022-07-26T21:48:53.540Z,1.90
2022-07-26T21:51:21.974Z,2.03
2022-07-26T21:53:50.203Z,2.03
2022-07-26T21:56:18.182Z,1.93
2022-07-26T21:58:47.112Z,2.07
2022-07-26T22:01:15.707Z,2.30
2022-07-26T22:03:45.253Z,2.13
2022-07-26T22:06:13.350Z,2.23
2022-07-26T22:08:41.503Z,2.20
2022-07-26T22:11:09.953Z,2.57
2022-07-26T22:13:38.247Z,2.33
2022-07-26T22:16:07.477Z,2.60
2022-07-26T22:18:35.549Z,2.20
2022-07-26T22:21:05.297Z,2.37
2022-07-26T22:23:33.747Z,2.67
2022-07-26T22:26:04.061Z,2.10
2022-07-26T22:28:33.492Z,2.00
2022-07-26T22:31:02.373Z,3.13
2022-07-26T22:33:30.349Z,2.50
2022-07-26T22:35:58.409Z,2.00
2022-07-26T22:38:27.754Z,2.57
2022-07-26T22:40:55.749Z,2.87
2022-07-26T22:43:23.700Z,2.30
2022-07-26T22:45:51.825Z,2.10
2022-07-26T22:48:19.862Z,2.60
2022-07-26T22:50:47.844Z,2.50
2022-07-26T22:53:16.380Z,2.77
2022-07-26T22:55:45.800Z,2.20
2022-07-26T22:58:13.915Z,2.97
2022-07-26T23:00:42.066Z,2.00
2022-07-26T23:03:19.314Z,3.10
2022-07-26T23:05:49.249Z,2.20
2022-07-26T23:08:45.317Z,2.03
2022-07-26T23:11:07.741Z,2.07
2022-07-26T23:13:35.772Z,1.80
2022-07-26T23:16:04.025Z,2.67
2022-07-26T23:18:32.795Z,1.90
2022-07-26T23:21:00.863Z,2.83
2022-07-26T23:23:29.966Z,2.53
2022-07-26T23:25:59.572Z,2.10
2022-07-26T23:28:37.491Z,2.30
2022-07-26T23:31:07.901Z,2.53
2022-07-26T23:33:51.612Z,2.30
2022-07-26T23:36:22.988Z,1.80
2022-07-26T23:38:51.036Z,2.80
2022-07-26T23:41:19.319Z,2.27
2022-07-26T23:43:49.009Z,2.33
2022-07-26T23:46:17.325Z,2.10
2022-07-26T23:48:45.578Z,1.97
2022-07-26T23:51:13.885Z,2.30
2022-07-26T23:53:42.121Z,2.33
2022-07-26T23:56:10.089Z,2.57
2022-07-26T23:58:38.576Z,2.50
